Prudhoe Bay — WDI7750 — position and weather

sailwx.info

Track history (hours):
 
Tides and Currents Weather Stations Pressure Air Temp Water Temp Dewpoint Dewpoint Depression Visibility Wind Speed Wind Dir Waves Ship Positions

Prudhoe Bay

Owner: Global Diving, Seattle, WA. More information available from US FCC via Universal Licensing System and Coast Guard Vessel Documentation Center.

Last reported at 2017-Dec-17 02:02 UTC. Time now 2018-Jan-18 07:41 UTC.
Position N 48°33' W 122°41'.
Warning: this ship's position is 32 days out of date.

Length 19 m.

Type: Diving. MMSI: 367731850.

Date/timePositionNaut miles runAvg speedWind from/ knotsBaromVisibWave heightAir tempDewpointWater temp
2017-Dec-17 02:02N 48°33' W 122°41'0 0.0
2017-Dec-17 01:44N 48°33' W 122°41'0 0.0
2017-Dec-16 19:18N 48°33' W 122°41'  
2017-Dec-13 21:16N 48°31' W 122°38'1 5.0
2017-Dec-13 21:00N 48°31' W 122°36'0 0.7
2017-Dec-13 20:27N 48°31' W 122°36'0 0.0
2017-Dec-13 19:56N 48°31' W 122°36'0 0.0
2017-Dec-13 19:26N 48°31' W 122°36'0 0.2
2017-Dec-13 19:00N 48°31' W 122°37'0 0.0
2017-Dec-13 18:26N 48°31' W 122°37'0 0.0
2017-Dec-13 17:56N 48°31' W 122°37'0 0.0
2017-Dec-13 17:26N 48°31' W 122°37'1 1.6
2017-Dec-13 16:59N 48°31' W 122°35'  
2017-Dec-09 11:40N 47°35' W 122°21'0 0.5
2017-Dec-09 10:48N 47°35' W 122°21'0 0.1
2017-Dec-09 10:09N 47°35' W 122°21'0 0.0
2017-Dec-09 09:48N 47°35' W 122°21'0 0.0
2017-Dec-08 23:26N 47°35' W 122°21'0 0.0
2017-Dec-08 21:17N 47°35' W 122°21'0 0.0
2017-Dec-08 21:00N 47°35' W 122°21'0 0.0
2017-Dec-08 20:27N 47°35' W 122°21'0 0.0
2017-Dec-08 20:00N 47°35' W 122°21'0 0.0
2017-Dec-08 19:21N 47°35' W 122°21'0 0.0
2017-Dec-08 14:30N 47°35' W 122°21'1 0.4
2017-Dec-08 13:08N 47°35' W 122°21'0 0.1
2017-Dec-08 11:29N 47°35' W 122°21'0 0.0
2017-Dec-08 09:35N 47°35' W 122°21'0 0.0
2017-Dec-08 08:23N 47°35' W 122°21'0 0.0
2017-Dec-08 07:56N 47°35' W 122°21'0 0.0
2017-Dec-07 23:33N 47°35' W 122°21'0 6.5
2017-Dec-07 23:30N 47°36' W 122°21'4 6.8
2017-Dec-07 22:58N 47°38' W 122°25'3 5.7
2017-Dec-07 22:30N 47°41' W 122°25'0 0.2
2017-Dec-07 21:48N 47°41' W 122°25'0 0.0
2017-Dec-07 21:30N 47°41' W 122°25'0 0.0
2017-Dec-07 21:00N 47°41' W 122°25'0 0.0
2017-Dec-07 20:29N 47°41' W 122°25'0 0.0
2017-Dec-07 19:57N 47°41' W 122°25'0 0.0
2017-Dec-07 19:28N 47°41' W 122°25'0 0.0
2017-Dec-07 19:00N 47°41' W 122°25'0 0.0
2017-Dec-07 18:30N 47°41' W 122°25'0 0.2
2017-Dec-07 17:58N 47°41' W 122°25'0 0.2
2017-Dec-07 17:30N 47°41' W 122°25'3 4.1
2017-Dec-07 16:41N 47°37' W 122°24'4 1.2
2017-Dec-07 13:50N 47°35' W 122°21'0 0.0
2017-Dec-07 12:45N 47°35' W 122°21'0 0.7
2017-Dec-07 12:16N 47°35' W 122°21'0 0.0
2017-Dec-07 11:58N 47°35' W 122°21'0 0.0
2017-Dec-07 11:25N 47°35' W 122°21'0 0.0
2017-Dec-07 10:58N 47°35' W 122°21'0 0.0
2017-Dec-07 10:28N 47°35' W 122°21'0 0.0
2017-Dec-07 09:56N 47°35' W 122°21'0 0.0
2017-Dec-07 09:27N 47°35' W 122°21'0 0.0
2017-Dec-07 09:00N 47°35' W 122°21'0 0.0
2017-Dec-07 08:26N 47°35' W 122°21'0 0.0
2017-Dec-07 07:59N 47°35' W 122°21'0 0.0
2017-Dec-07 07:20N 47°35' W 122°21'0 0.0
2017-Dec-07 06:59N 47°35' W 122°21'  
Track history (hours):
 
Tides and Currents Weather Stations Pressure Air Temp Water Temp Dewpoint Dewpoint Depression Visibility Wind Speed Wind Dir Waves Ship Positions

Prudhoe Bay

Owner: Global Diving, Seattle, WA. More information available from US FCC via Universal Licensing System and Coast Guard Vessel Documentation Center.

Last reported at 2017-Dec-17 02:02 UTC. Time now 2018-Jan-18 07:41 UTC.
Position N 48°33' W 122°41'.
Warning: this ship's position is 32 days out of date.

Length 19 m.

Type: Diving. MMSI: 367731850.

Date/timePositionNaut miles runAvg speedWind from/ knotsBaromVisibWave heightAir tempDewpointWater temp
2017-Dec-17 02:02N 48°33' W 122°41'0 0.0
2017-Dec-17 01:44N 48°33' W 122°41'0 0.0
2017-Dec-16 19:18N 48°33' W 122°41'  
2017-Dec-13 21:16N 48°31' W 122°38'1 5.0
2017-Dec-13 21:00N 48°31' W 122°36'0 0.7
2017-Dec-13 20:27N 48°31' W 122°36'0 0.0
2017-Dec-13 19:56N 48°31' W 122°36'0 0.0
2017-Dec-13 19:26N 48°31' W 122°36'0 0.2
2017-Dec-13 19:00N 48°31' W 122°37'0 0.0
2017-Dec-13 18:26N 48°31' W 122°37'0 0.0
2017-Dec-13 17:56N 48°31' W 122°37'0 0.0
2017-Dec-13 17:26N 48°31' W 122°37'1 1.6
2017-Dec-13 16:59N 48°31' W 122°35'  
2017-Dec-09 11:40N 47°35' W 122°21'0 0.5
2017-Dec-09 10:48N 47°35' W 122°21'0 0.1
2017-Dec-09 10:09N 47°35' W 122°21'0 0.0
2017-Dec-09 09:48N 47°35' W 122°21'0 0.0
2017-Dec-08 23:26N 47°35' W 122°21'0 0.0
2017-Dec-08 21:17N 47°35' W 122°21'0 0.0
2017-Dec-08 21:00N 47°35' W 122°21'0 0.0
2017-Dec-08 20:27N 47°35' W 122°21'0 0.0
2017-Dec-08 20:00N 47°35' W 122°21'0 0.0
2017-Dec-08 19:21N 47°35' W 122°21'0 0.0
2017-Dec-08 14:30N 47°35' W 122°21'1 0.4
2017-Dec-08 13:08N 47°35' W 122°21'0 0.1
2017-Dec-08 11:29N 47°35' W 122°21'0 0.0
2017-Dec-08 09:35N 47°35' W 122°21'0 0.0
2017-Dec-08 08:23N 47°35' W 122°21'0 0.0
2017-Dec-08 07:56N 47°35' W 122°21'0 0.0
2017-Dec-07 23:33N 47°35' W 122°21'0 6.5
2017-Dec-07 23:30N 47°36' W 122°21'4 6.8
2017-Dec-07 22:58N 47°38' W 122°25'3 5.7
2017-Dec-07 22:30N 47°41' W 122°25'0 0.2
2017-Dec-07 21:48N 47°41' W 122°25'0 0.0
2017-Dec-07 21:30N 47°41' W 122°25'0 0.0
2017-Dec-07 21:00N 47°41' W 122°25'0 0.0
2017-Dec-07 20:29N 47°41' W 122°25'0 0.0
2017-Dec-07 19:57N 47°41' W 122°25'0 0.0
2017-Dec-07 19:28N 47°41' W 122°25'0 0.0
2017-Dec-07 19:00N 47°41' W 122°25'0 0.0
2017-Dec-07 18:30N 47°41' W 122°25'0 0.2
2017-Dec-07 17:58N 47°41' W 122°25'0 0.2
2017-Dec-07 17:30N 47°41' W 122°25'3 4.1
2017-Dec-07 16:41N 47°37' W 122°24'4 1.2
2017-Dec-07 13:50N 47°35' W 122°21'0 0.0
2017-Dec-07 12:45N 47°35' W 122°21'0 0.7
2017-Dec-07 12:16N 47°35' W 122°21'0 0.0
2017-Dec-07 11:58N 47°35' W 122°21'0 0.0
2017-Dec-07 11:25N 47°35' W 122°21'0 0.0
2017-Dec-07 10:58N 47°35' W 122°21'0 0.0
2017-Dec-07 10:28N 47°35' W 122°21'0 0.0
2017-Dec-07 09:56N 47°35' W 122°21'0 0.0
2017-Dec-07 09:27N 47°35' W 122°21'0 0.0
2017-Dec-07 09:00N 47°35' W 122°21'0 0.0
2017-Dec-07 08:26N 47°35' W 122°21'0 0.0
2017-Dec-07 07:59N 47°35' W 122°21'0 0.0
2017-Dec-07 07:20N 47°35' W 122°21'0 0.0
2017-Dec-07 06:59N 47°35' W 122°21'  

Dump ship's entire track history